createdAt,value
2023-03-23T15:58:20.143Z,92367.25
2023-03-23T16:01:08.310Z,92357.28
2023-03-23T16:03:53.550Z,92360.06
2023-03-23T16:06:38.185Z,92368.03
2023-03-23T16:09:22.206Z,92362.28
2023-03-23T16:12:05.252Z,92368.44
2023-03-23T16:14:48.171Z,92361.84
2023-03-23T16:17:33.428Z,92367.03
2023-03-23T16:20:19.327Z,92369.00
2023-03-23T16:23:02.251Z,92372.00
2023-03-23T16:25:45.372Z,92371.00
2023-03-23T16:28:29.594Z,92366.34
2023-03-23T16:31:12.628Z,92375.94
2023-03-23T16:33:56.966Z,92381.91
2023-03-23T16:36:39.991Z,92378.69
2023-03-23T16:39:23.402Z,92383.31
2023-03-23T16:42:06.349Z,92385.44
2023-03-23T16:44:50.762Z,92389.25
2023-03-23T16:47:33.898Z,92384.63
2023-03-23T16:50:19.787Z,92394.56
2023-03-23T16:53:03.007Z,92402.75
2023-03-23T16:55:48.344Z,92395.13
2023-03-23T16:58:31.415Z,92389.56
2023-03-23T17:01:14.547Z,92387.16
2023-03-23T17:03:57.550Z,92395.91
2023-03-23T17:06:42.976Z,92397.91
2023-03-23T17:09:25.976Z,92397.28
2023-03-23T17:12:09.317Z,92394.28
2023-03-23T17:14:52.163Z,92393.06
2023-03-23T17:17:35.326Z,92393.44
2023-03-23T17:20:18.312Z,92387.66
2023-03-23T17:23:02.880Z,92390.44
2023-03-23T17:25:47.273Z,92392.59
2023-03-23T17:28:30.226Z,92394.75
2023-03-23T17:31:13.150Z,92388.78
2023-03-23T17:33:57.603Z,92386.38
2023-03-23T17:36:40.564Z,92386.56
2023-03-23T17:39:24.859Z,92391.13
2023-03-23T17:42:07.773Z,92388.31
2023-03-23T17:44:50.680Z,92385.06
2023-03-23T17:47:33.649Z,92381.44
2023-03-23T17:50:16.581Z,92394.94
2023-03-23T17:53:01.504Z,92392.94
2023-03-23T17:55:46.100Z,92388.88
2023-03-23T17:58:29.207Z,92388.19
2023-03-23T18:01:12.149Z,92403.47
2023-03-23T18:03:55.127Z,92405.63
2023-03-23T18:06:37.991Z,92419.53
2023-03-23T18:09:21.000Z,92423.31
2023-03-23T18:12:05.744Z,92420.91
2023-03-23T18:14:48.598Z,92423.66
2023-03-23T18:17:31.500Z,92420.47
2023-03-23T18:20:15.314Z,92440.53
2023-03-23T18:22:58.773Z,92445.69
2023-03-23T18:25:42.180Z,92442.28
2023-03-23T18:28:27.646Z,92441.66
2023-03-23T18:31:13.108Z,92440.69
2023-03-23T18:33:56.156Z,92445.44
2023-03-23T18:36:39.018Z,92442.84
2023-03-23T18:39:22.080Z,92449.19
2023-03-23T18:42:05.179Z,92449.28
2023-03-23T18:44:49.475Z,92447.06
2023-03-23T18:47:32.460Z,92446.63
2023-03-23T18:50:15.543Z,92438.63
2023-03-23T18:52:58.404Z,92432.81
2023-03-23T18:55:41.540Z,92438.00
2023-03-23T18:58:24.430Z,92440.16
2023-03-23T19:01:11.213Z,92445.69
2023-03-23T19:03:54.435Z,92441.69
2023-03-23T19:06:37.296Z,92439.09
2023-03-23T19:09:20.219Z,92445.25
2023-03-23T19:12:03.070Z,92444.28
2023-03-23T19:14:45.992Z,92438.66
2023-03-23T19:17:30.328Z,92439.47
2023-03-23T19:20:22.541Z,92444.47
2023-03-23T19:23:17.578Z,92431.53
2023-03-23T19:26:00.632Z,92436.72
2023-03-23T19:29:21.520Z,92434.28
2023-03-23T19:31:47.545Z,92422.34
2023-03-23T19:34:32.462Z,92418.97
2023-03-23T19:37:16.274Z,92410.25
2023-03-23T19:40:02.879Z,92407.22
2023-03-23T19:42:49.638Z,92405.00
2023-03-23T19:45:32.875Z,92408.56
2023-03-23T19:48:16.258Z,92403.66
2023-03-23T19:51:00.662Z,92407.59
2023-03-23T19:53:43.550Z,92407.59
2023-03-23T19:56:28.979Z,92409.63
2023-03-23T19:59:15.022Z,92412.38
2023-03-23T20:01:58.137Z,92419.34
2023-03-23T20:04:42.038Z,92422.91
2023-03-23T20:07:26.973Z,92422.13
2023-03-23T20:10:10.037Z,92419.34
2023-03-23T20:12:52.986Z,92413.34
2023-03-23T20:15:35.885Z,92422.91
2023-03-23T20:18:18.918Z,92416.75
2023-03-23T20:21:02.672Z,92426.09
2023-03-23T20:23:47.585Z,92422.72
2023-03-23T20:26:32.913Z,92425.47
2023-03-23T20:29:15.760Z,92431.00
2023-03-23T20:31:59.318Z,92433.78
2023-03-23T20:34:43.732Z,92449.63
2023-03-23T20:37:27.068Z,92449.84
2023-03-23T20:40:14.419Z,92450.19
2023-03-23T20:42:57.794Z,92450.34
2023-03-23T20:45:40.861Z,92451.88
2023-03-23T20:48:24.077Z,92449.63
2023-03-23T20:51:09.215Z,92450.19
2023-03-23T20:53:52.036Z,92453.31
2023-03-23T20:56:36.649Z,92457.22
2023-03-23T20:59:20.531Z,92454.00
2023-03-23T21:02:04.751Z,92444.84
2023-03-23T21:04:48.876Z,92456.34
2023-03-23T21:07:32.365Z,92447.34
2023-03-23T21:10:15.411Z,92444.31
2023-03-23T21:12:59.974Z,92437.91
2023-03-23T21:15:44.000Z,92439.41
2023-03-23T21:18:27.161Z,92436.84
2023-03-23T21:21:11.527Z,92437.97
2023-03-23T21:23:55.676Z,92437.34
2023-03-23T21:26:39.682Z,92432.56
2023-03-23T21:29:24.363Z,92438.06
2023-03-23T21:32:08.896Z,92434.03
2023-03-23T21:34:52.711Z,92437.63
2023-03-23T21:37:35.770Z,92443.94
2023-03-23T21:40:19.141Z,92436.38
2023-03-23T21:43:02.733Z,92433.94
2023-03-23T21:45:47.488Z,92428.19
2023-03-23T21:48:30.862Z,92432.88
2023-03-23T21:51:16.181Z,92430.50
2023-03-23T21:53:59.093Z,92432.44
2023-03-23T21:56:42.013Z,92433.56
2023-03-23T21:59:25.383Z,92432.94
2023-03-23T22:02:12.966Z,92434.06
2023-03-23T22:04:56.829Z,92442.78
2023-03-23T22:07:39.920Z,92439.41
2023-03-23T22:10:22.778Z,92443.50
2023-03-23T22:13:05.700Z,92431.28
2023-03-23T22:15:49.767Z,92439.38
2023-03-23T22:18:34.752Z,92433.13
2023-03-23T22:21:18.583Z,92438.63
2023-03-23T22:24:02.014Z,92424.84
2023-03-23T22:26:44.905Z,92433.91
2023-03-23T22:29:27.810Z,92425.72
2023-03-23T22:32:10.849Z,92424.25
2023-03-23T22:34:55.097Z,92412.72
2023-03-23T22:37:37.993Z,92417.88
2023-03-23T22:40:23.894Z,92415.44
2023-03-23T22:43:06.753Z,92412.25
2023-03-23T22:45:51.047Z,92404.97
2023-03-23T22:48:34.325Z,92408.53
2023-03-23T22:51:20.010Z,92406.00
2023-03-23T22:54:03.107Z,92407.94
2023-03-23T22:56:46.578Z,92401.19
2023-03-23T22:59:29.713Z,92397.81
2023-03-23T23:02:12.629Z,92393.63
2023-03-23T23:04:55.672Z,92383.84
2023-03-23T23:07:39.973Z,92376.28
2023-03-23T23:10:22.868Z,92378.84
2023-03-23T23:13:05.806Z,92375.69
2023-03-23T23:15:51.238Z,92375.50
2023-03-23T23:18:35.477Z,92373.88
2023-03-23T23:21:21.307Z,92372.91
2023-03-23T23:24:07.463Z,92377.28
2023-03-23T23:26:50.318Z,92373.88
2023-03-23T23:29:33.228Z,92375.50
2023-03-23T23:32:16.195Z,92372.28
2023-03-23T23:34:59.126Z,92372.00
2023-03-23T23:37:42.197Z,92373.66
2023-03-23T23:40:26.436Z,92369.66
2023-03-23T23:43:11.361Z,92372.72
2023-03-23T23:45:54.291Z,92367.75
2023-03-23T23:48:37.689Z,92367.91
2023-03-23T23:51:20.974Z,92370.69
2023-03-23T23:54:04.729Z,92366.34
2023-03-23T23:56:50.386Z,92366.69
2023-03-23T23:59:33.396Z,92363.47
